Time;durP1;ratioP1;P1;durP2;ratioP2;P2;SDS_P1;SDS_P2;PMS_P1;PMS_P2;Temp;Humidity;BMP_temperature;BMP_pressure;BME280_temperature;BME280_humidity;BME280_pressure;Samples;Min_cycle;Max_cycle;Signal;HPM_P1;HPM_P2
2022/11/25 00:01:23;;;;;;;18.47;10.13;;;;;;;1.74;100.00;99362.78;1787190;78;21155;-52
2022/11/25 00:03:50;;;;;;;16.87;9.37;;;;;;;1.74;100.00;99364.11;1781233;79;21037;-51
2022/11/25 00:06:23;;;;;;;15.80;9.80;;;;;;;1.74;100.00;99368.96;1777958;79;21038;-52
2022/11/25 00:08:56;;;;;;;15.47;9.90;;;;;;;1.76;100.00;99368.94;1814322;77;22322;-51
2022/11/25 00:11:23;;;;;;;20.47;10.93;;;;;;;1.78;100.00;99379.08;1814981;77;21031;-52
2022/11/25 00:13:49;;;;;;;17.90;10.00;;;;;;;1.78;100.00;99373.77;1812836;77;22010;-51
2022/11/25 00:16:19;;;;;;;17.07;10.13;;;;;;;1.78;100.00;99377.30;1812974;77;21080;-52
2022/11/25 00:18:47;;;;;;;16.00;9.30;;;;;;;1.78;100.00;99377.75;1786634;78;21064;-51
2022/11/25 00:21:16;;;;;;;18.93;11.43;;;;;;;1.79;100.00;99382.13;1789248;78;21017;-53
2022/11/25 00:23:44;;;;;;;16.87;10.17;;;;;;;1.79;100.00;99376.82;1783979;79;21056;-51
2022/11/25 00:26:13;;;;;;;14.87;9.07;;;;;;;1.80;100.00;99370.61;1774719;80;21770;-52
2022/11/25 00:28:42;;;;;;;18.30;10.03;;;;;;;1.82;100.00;99374.13;1806782;77;21015;-51
2022/11/25 00:31:11;;;;;;;19.40;10.60;;;;;;;1.82;100.00;99371.47;1808024;78;20994;-51
2022/11/25 00:33:37;;;;;;;15.50;9.43;;;;;;;1.83;100.00;99375.87;1785339;78;21555;-52
2022/11/25 00:36:08;;;;;;;20.37;11.30;;;;;;;1.83;100.00;99369.24;1790942;78;21044;-52
2022/11/25 00:38:35;;;;;;;21.17;11.57;;;;;;;1.81;100.00;99374.57;1816135;77;21985;-52
2022/11/25 00:46:32;;;;;;;18.25;10.20;;;;;;;1.76;100.00;99375.58;1793529;78;21011;-52
2022/11/25 00:48:58;;;;;;;15.10;9.47;;;;;;;1.75;100.00;99387.09;1782690;78;21021;-51
2022/11/25 00:51:25;;;;;;;15.23;8.80;;;;;;;1.74;100.00;99375.59;1791494;78;21977;-51
2022/11/25 00:53:51;;;;;;;14.50;8.77;;;;;;;1.73;100.00;99377.83;1789166;78;21554;-52
2022/11/25 00:56:17;;;;;;;15.17;9.10;;;;;;;1.74;100.00;99379.58;1812260;77;21025;-53
2022/11/25 00:58:44;;;;;;;15.07;10.20;;;;;;;1.74;100.00;99378.70;1816668;78;21053;-51
2022/11/25 01:01:11;;;;;;;17.17;10.07;;;;;;;1.74;100.00;99376.92;1812356;77;21124;-52
2022/11/25 01:03:38;;;;;;;18.53;10.63;;;;;;;1.74;100.00;99374.72;1790480;78;21887;-53
2022/11/25 01:06:07;;;;;;;19.33;10.00;;;;;;;1.74;100.00;99381.35;1787422;78;21498;-53
2022/11/25 01:08:36;;;;;;;17.43;8.77;;;;;;;1.74;100.00;99384.01;1778974;78;21058;-53
2022/11/25 01:11:06;;;;;;;16.57;10.13;;;;;;;1.74;100.00;99380.03;1807566;77;21054;-51
2022/11/25 01:13:33;;;;;;;14.00;9.40;;;;;;;1.75;100.00;99385.31;1790922;78;21348;-53
2022/11/25 01:16:04;;;;;;;14.07;10.03;;;;;;;1.77;100.00;99392.80;1782557;79;21828;-52
2022/11/25 01:18:31;;;;;;;13.10;8.03;;;;;;;1.77;100.00;99390.14;1782532;79;21029;-51
2022/11/25 01:21:13;;;;;;;14.40;9.37;;;;;;;1.78;100.00;99391.02;1787673;78;22313;-51
2022/11/25 01:23:40;;;;;;;13.10;7.70;;;;;;;1.80;100.00;99391.84;1789755;78;21043;-52
2022/11/25 01:27:34;;;;;;;12.77;7.97;;;;;;;1.86;100.00;99383.79;1782722;78;24015;-53
2022/11/25 01:30:01;;;;;;;12.47;8.37;;;;;;;1.84;100.00;99403.72;1762602;79;21027;-52
2022/11/25 01:32:28;;;;;;;11.40;7.77;;;;;;;1.83;100.00;99402.41;1763739;79;23992;-52
2022/11/25 01:34:54;;;;;;;12.97;8.63;;;;;;;1.81;100.00;99402.88;1764634;79;21641;-52
2022/11/25 01:37:21;;;;;;;13.60;8.27;;;;;;;1.77;100.00;99399.88;1756507;80;21053;-53
2022/11/25 01:39:47;;;;;;;9.67;6.90;;;;;;;1.73;100.00;99394.19;1742610;81;21784;-51
2022/11/25 01:42:14;;;;;;;11.17;6.27;;;;;;;1.68;100.00;99395.62;1737997;81;21080;-51
2022/11/25 01:44:41;;;;;;;11.70;5.13;;;;;;;1.65;100.00;99393.02;1737522;81;22509;-51
2022/11/25 01:47:22;;;;;;;8.57;4.87;;;;;;;1.63;100.00;99395.26;1738490;81;21517;-52
2022/11/25 01:49:59;;;;;;;7.67;5.20;;;;;;;1.63;100.00;99399.23;1739852;81;21100;-50
2022/11/25 01:52:38;;;;;;;4.60;3.13;;;;;;;1.62;100.00;99399.69;1739137;81;21222;-52
2022/11/25 01:55:12;;;;;;;6.20;4.43;;;;;;;1.63;100.00;99403.22;1679383;83;21404;-51
2022/11/25 01:57:47;;;;;;;8.93;5.45;;;;;;;1.63;100.00;99404.55;1702410;82;21799;-53
2022/11/25 02:00:14;;;;;;;5.07;4.57;;;;;;;1.62;100.00;99398.81;1702329;82;21094;-52
2022/11/25 02:02:45;;;;;;;5.47;3.57;;;;;;;1.62;100.00;99394.83;1681695;83;21165;-52
2022/11/25 02:05:14;;;;;;;5.33;3.27;;;;;;;1.61;100.00;99397.97;1658155;83;21033;-52
2022/11/25 02:07:42;;;;;;;4.03;2.80;;;;;;;1.60;100.00;99398.86;1676570;84;21083;-51
2022/11/25 02:10:15;;;;;;;4.60;3.40;;;;;;;1.58;100.00;99398.01;1663006;83;21395;-52
2022/11/25 02:12:44;;;;;;;5.55;2.90;;;;;;;1.59;100.00;99398.89;1678714;83;21150;-51
2022/11/25 02:15:11;;;;;;;3.40;2.37;;;;;;;1.60;100.00;99403.30;1652865;84;21121;-52
2022/11/25 02:17:38;;;;;;;3.33;2.63;;;;;;;1.60;100.00;99395.33;1675202;84;21041;-52
2022/11/25 02:20:12;;;;;;;4.00;2.07;;;;;;;1.60;100.00;99409.92;1689949;83;21042;-52
2022/11/25 02:23:15;;;;;;;4.50;2.27;;;;;;;1.58;100.00;99407.74;1678574;83;21851;-51
2022/11/25 02:25:43;;;;;;;3.70;2.10;;;;;;;1.57;100.00;99412.62;1676293;83;21120;-52
2022/11/25 02:28:15;;;;;;;3.23;2.23;;;;;;;1.54;100.00;99416.19;1717435;82;20971;-52
2022/11/25 02:30:42;;;;;;;2.70;2.10;;;;;;;1.51;100.00;99414.48;1725532;82;21070;-52
2022/11/25 02:33:08;;;;;;;1.90;1.60;;;;;;;1.51;100.00;99421.13;1722672;82;21580;-52
2022/11/25 02:35:41;;;;;;;1.97;1.40;;;;;;;1.55;100.00;99418.39;1726878;82;21952;-53
2022/11/25 02:38:18;;;;;;;2.20;1.50;;;;;;;1.58;100.00;99426.31;1710347;82;21121;-52
2022/11/25 02:40:52;;;;;;;3.10;1.93;;;;;;;1.57;100.00;99429.41;1724533;81;21054;-53
2022/11/25 02:43:19;;;;;;;2.43;1.93;;;;;;;1.60;100.00;99433.80;1673392;83;21069;-52
2022/11/25 02:46:05;;;;;;;2.27;1.53;;;;;;;1.58;100.00;99434.27;1722259;82;21448;-52
2022/11/25 02:48:35;;;;;;;2.63;1.63;;;;;;;1.59;100.00;99438.67;1726162;82;21387;-52
2022/11/25 02:51:03;;;;;;;1.70;1.20;;;;;;;1.60;100.00;99441.76;1726780;82;21276;-52
2022/11/25 02:53:29;;;;;;;2.47;1.37;;;;;;;1.59;100.00;99440.88;1721915;82;21419;-52
2022/11/25 02:55:56;;;;;;;1.90;1.30;;;;;;;1.59;100.00;99442.20;1718830;82;21885;-51
2022/11/25 02:58:23;;;;;;;2.47;1.40;;;;;;;1.60;100.00;99445.29;1725097;81;21045;-52
2022/11/25 03:00:49;;;;;;;2.50;1.20;;;;;;;1.62;100.00;99441.26;1728057;82;21841;-52
2022/11/25 03:03:16;;;;;;;3.37;1.27;;;;;;;1.62;100.00;99443.91;1726787;82;21026;-52
2022/11/25 03:05:43;;;;;;;3.70;1.50;;;;;;;1.64;100.00;99451.40;1724383;82;21066;-52
2022/11/25 03:08:09;;;;;;;2.10;1.20;;;;;;;1.64;100.00;99454.93;1724284;82;21081;-53
2022/11/25 03:10:37;;;;;;;1.77;1.17;;;;;;;1.65;100.00;99459.78;1723850;82;21054;-52
2022/11/25 03:13:04;;;;;;;2.10;1.20;;;;;;;1.63;100.00;99458.92;1725875;82;21766;-52
2022/11/25 03:15:30;;;;;;;2.57;1.30;;;;;;;1.62;100.00;99467.78;1723721;81;21116;-52
2022/11/25 03:17:57;;;;;;;2.93;1.23;;;;;;;1.62;100.00;99466.02;1730829;82;21329;-52
2022/11/25 03:20:23;;;;;;;1.57;1.00;;;;;;;1.62;100.00;99469.11;1729195;81;21058;-51
2022/11/25 03:22:50;;;;;;;2.13;1.10;;;;;;;1.59;100.00;99468.73;1724343;82;21046;-53
2022/11/25 03:25:16;;;;;;;2.87;1.57;;;;;;;1.57;100.00;99467.87;1728183;82;22559;-52
2022/11/25 03:27:43;;;;;;;2.10;1.17;;;;;;;1.59;100.00;99471.39;1721397;81;21392;-53
2022/11/25 03:30:17;;;;;;;2.53;1.20;;;;;;;1.61;100.00;99475.34;1727227;81;21128;-53
2022/11/25 03:32:44;;;;;;;1.77;1.32;;;;;;;1.62;100.00;99475.74;1728741;81;21071;-53
2022/11/25 03:35:11;;;;;;;3.20;1.10;;;;;;;1.63;100.00;99472.20;1726001;81;21069;-53
2022/11/25 03:37:38;;;;;;;2.40;1.33;;;;;;;1.63;100.00;99471.74;1727368;81;22982;-52
2022/11/25 03:40:07;;;;;;;2.23;1.30;;;;;;;1.63;100.00;99474.84;1694704;82;21288;-52
2022/11/25 03:42:35;;;;;;;2.53;1.53;;;;;;;1.63;100.00;99474.40;1709219;81;21071;-52
2022/11/25 03:45:02;;;;;;;2.03;1.40;;;;;;;1.65;100.00;99479.23;1724024;82;21081;-52
2022/11/25 03:47:29;;;;;;;3.77;2.00;;;;;;;1.66;100.00;99475.69;1723099;81;21034;-53
2022/11/25 03:49:55;;;;;;;3.33;1.50;;;;;;;1.68;100.00;99483.63;1730863;81;22850;-53
2022/11/25 03:52:22;;;;;;;2.43;1.30;;;;;;;1.72;100.00;99489.29;1731196;80;21581;-52
2022/11/25 03:54:49;;;;;;;2.10;1.30;;;;;;;1.74;100.00;99493.68;1728488;81;21065;-52
2022/11/25 03:57:18;;;;;;;1.90;1.30;;;;;;;1.72;100.00;99491.50;1727818;81;21790;-53
2022/11/25 03:59:44;;;;;;;3.93;1.60;;;;;;;1.70;100.00;99489.79;1729411;81;21061;-53
2022/11/25 04:02:11;;;;;;;4.20;1.80;;;;;;;1.67;100.00;99489.38;1729707;81;21836;-53
2022/11/25 04:04:37;;;;;;;7.73;1.17;;;;;;;1.64;100.00;99492.52;1730349;81;21120;-52
2022/11/25 04:07:04;;;;;;;3.10;1.23;;;;;;;1.59;100.00;99489.95;1727172;81;21439;-52
2022/11/25 04:09:30;;;;;;;2.33;1.50;;;;;;;1.56;100.00;99491.77;1731616;81;21045;-52
2022/11/25 04:14:46;;;;;;;2.17;1.40;;;;;;;1.49;100.00;99498.95;1729809;81;22028;-53
2022/11/25 04:17:12;;;;;;;2.53;1.40;;;;;;;1.48;100.00;99495.43;1728871;81;21479;-51
2022/11/25 04:19:40;;;;;;;2.00;1.20;;;;;;;1.49;100.00;99495.86;1730934;81;21514;-52
2022/11/25 04:22:07;;;;;;;3.00;1.30;;;;;;;1.50;100.00;99490.98;1729596;81;21076;-52
2022/11/25 04:24:35;;;;;;;2.50;1.20;;;;;;;1.50;100.00;99497.61;1734647;81;21668;-52
2022/11/25 04:27:03;;;;;;;2.53;1.20;;;;;;;1.53;100.00;99498.47;1725462;81;21830;-52
2022/11/25 04:29:30;;;;;;;2.80;1.37;;;;;;;1.55;100.00;99498.85;1727664;81;21318;-52
2022/11/25 04:31:58;;;;;;;2.60;1.40;;;;;;;1.58;100.00;99507.22;1710006;82;21065;-53
2022/11/25 04:34:24;;;;;;;1.80;1.13;;;;;;;1.57;100.00;99503.69;1732716;81;21037;-52
2022/11/25 04:36:51;;;;;;;1.67;1.00;;;;;;;1.56;100.00;99504.59;1734776;81;21076;-52
2022/11/25 04:39:18;;;;;;;1.80;1.17;;;;;;;1.55;100.00;99500.18;1672407;83;22861;-53
2022/11/25 04:41:45;;;;;;;3.47;1.60;;;;;;;1.57;100.00;99504.14;1734420;81;21314;-53
2022/11/25 04:44:12;;;;;;;2.03;1.10;;;;;;;1.58;100.00;99504.57;1733367;81;21092;-52
2022/11/25 04:46:40;;;;;;;2.17;1.50;;;;;;;1.59;100.00;99505.00;1733168;81;21030;-52
2022/11/25 04:49:07;;;;;;;4.03;1.33;;;;;;;1.56;100.00;99503.71;1736157;81;21054;-52
2022/11/25 04:51:35;;;;;;;2.10;1.43;;;;;;;1.56;100.00;99513.00;1727716;81;21167;-52
2022/11/25 04:54:03;;;;;;;3.13;1.53;;;;;;;1.53;100.00;99519.70;1736098;81;21321;-53
2022/11/25 04:56:30;;;;;;;2.03;1.17;;;;;;;1.51;100.00;99521.92;1731125;81;21057;-52
2022/11/25 05:01:43;;;;;;;3.90;1.10;;;;;;;1.53;100.00;99519.70;1731212;81;21457;-52
2022/11/25 05:04:17;;;;;;;2.35;1.45;;;;;;;1.49;100.00;99517.08;1732707;81;22726;-52
2022/11/25 05:06:44;;;;;;;4.27;2.00;;;;;;;1.49;100.00;99530.34;1732507;81;21614;-52
2022/11/25 05:09:11;;;;;;;2.87;1.60;;;;;;;1.50;100.00;99529.45;1696972;83;21559;-52
2022/11/25 05:11:39;;;;;;;6.40;1.97;;;;;;;1.49;100.00;99529.47;1730286;81;21042;-53
2022/11/25 05:14:06;;;;;;;3.57;1.50;;;;;;;1.48;100.00;99532.56;1730603;81;21038;-53
2022/11/25 05:16:32;;;;;;;2.97;1.60;;;;;;;1.49;100.00;99532.12;1734864;81;23537;-53
2022/11/25 05:18:59;;;;;;;2.00;1.40;;;;;;;1.50;100.00;99533.88;1729696;81;21510;-52
2022/11/25 05:21:26;;;;;;;2.47;1.40;;;;;;;1.50;100.00;99544.48;1734076;81;21022;-52
2022/11/25 05:23:54;;;;;;;1.90;1.40;;;;;;;1.49;100.00;99536.97;1676939;83;21510;-52
2022/11/25 05:26:21;;;;;;;2.37;1.20;;;;;;;1.50;100.00;99544.03;1728727;81;21055;-51
2022/11/25 05:28:49;;;;;;;2.87;1.70;;;;;;;1.50;100.00;99548.02;1715465;82;21829;-52
2022/11/25 05:31:16;;;;;;;2.33;1.40;;;;;;;1.50;100.00;99550.66;1665093;83;21051;-52
2022/11/25 05:33:43;;;;;;;4.70;1.80;;;;;;;1.51;100.00;99549.77;1679570;84;21514;-52
2022/11/25 05:36:10;;;;;;;6.17;1.93;;;;;;;1.50;100.00;99547.13;1724082;82;21101;-52
2022/11/25 05:38:41;;;;;;;3.30;1.83;;;;;;;1.46;100.00;99547.62;1726718;81;21475;-52
2022/11/25 05:41:10;;;;;;;3.00;1.80;;;;;;;1.44;100.00;99555.19;1673064;83;21956;-52
2022/11/25 05:43:37;;;;;;;6.80;1.70;;;;;;;1.41;100.00;99552.13;1722533;82;21042;-52
2022/11/25 05:46:07;;;;;;;5.80;2.57;;;;;;;1.40;100.00;99560.98;1720844;82;21125;-52
2022/11/25 05:48:34;;;;;;;3.13;2.20;;;;;;;1.41;100.00;99568.48;1665696;83;21600;-53
2022/11/25 05:51:01;;;;;;;3.17;2.03;;;;;;;1.38;100.00;99568.52;1669690;83;21029;-52
2022/11/25 05:53:29;;;;;;;8.97;2.20;;;;;;;1.37;100.00;99582.67;1666360;83;21828;-51
2022/11/25 05:55:58;;;;;;;3.17;1.73;;;;;;;1.36;100.00;99582.27;1723872;82;21397;-51
2022/11/25 05:58:30;;;;;;;4.08;1.75;;;;;;;1.35;100.00;99589.80;1726642;81;21049;-52
2022/11/25 06:00:58;;;;;;;3.40;1.87;;;;;;;1.35;100.00;99581.84;1727948;82;21065;-52
2022/11/25 06:03:26;;;;;;;5.30;2.43;;;;;;;1.32;100.00;99594.69;1721032;82;21027;-53
2022/11/25 06:05:55;;;;;;;3.30;2.00;;;;;;;1.33;100.00;99604.40;1725190;82;21835;-53
2022/11/25 06:08:22;;;;;;;2.73;1.60;;;;;;;1.34;100.00;99602.17;1669248;84;21065;-51
2022/11/25 06:10:48;;;;;;;4.87;2.50;;;;;;;1.35;100.00;99610.56;1725005;82;21069;-51
2022/11/25 06:13:15;;;;;;;6.83;2.33;;;;;;;1.34;100.00;99604.83;1725472;82;21026;-52
2022/11/25 06:15:43;;;;;;;8.17;2.20;;;;;;;1.36;100.00;99606.98;1727903;82;22463;-52
2022/11/25 06:18:12;;;;;;;4.80;2.50;;;;;;;1.40;100.00;99611.81;1728567;82;21471;-51
2022/11/25 06:20:39;;;;;;;4.27;2.43;;;;;;;1.42;100.00;99611.35;1725114;82;21050;-52
2022/11/25 06:23:06;;;;;;;5.33;3.40;;;;;;;1.46;100.00;99615.70;1725024;81;21128;-51
2022/11/25 06:25:35;;;;;;;7.13;2.33;;;;;;;1.47;100.00;99616.12;1724650;81;21478;-53
2022/11/25 06:28:02;;;;;;;4.23;2.40;;;;;;;1.45;100.00;99609.52;1716705;82;21152;-52
2022/11/25 06:30:29;;;;;;;4.10;2.50;;;;;;;1.44;100.00;99623.70;1723727;82;24067;-52
2022/11/25 06:33:00;;;;;;;8.20;3.30;;;;;;;1.44;100.00;99617.52;1728758;82;21066;-52
2022/11/25 06:35:27;;;;;;;4.13;2.97;;;;;;;1.45;100.00;99613.94;1673255;83;21106;-52
2022/11/25 06:37:57;;;;;;;4.27;2.40;;;;;;;1.46;100.00;99622.33;1725336;82;21034;-53
2022/11/25 06:40:24;;;;;;;4.30;2.37;;;;;;;1.46;100.00;99618.35;1649483;84;21072;-52
2022/11/25 06:42:51;;;;;;;6.97;2.87;;;;;;;1.45;100.00;99617.47;1722390;81;21891;-53
2022/11/25 06:45:18;;;;;;;7.13;3.67;;;;;;;1.44;100.00;99620.17;1723438;82;21400;-52
2022/11/25 06:47:45;;;;;;;6.63;3.77;;;;;;;1.42;100.00;99616.66;1720913;80;21062;-52
2022/11/25 06:50:11;;;;;;;7.20;3.60;;;;;;;1.43;100.00;99618.42;1725034;82;21512;-52
2022/11/25 06:52:37;;;;;;;11.97;4.67;;;;;;;1.44;100.00;99619.73;1727573;82;21289;-52
2022/11/25 06:55:05;;;;;;;11.63;4.37;;;;;;;1.47;100.00;99625.41;1724364;82;21799;-52
2022/11/25 06:57:32;;;;;;;8.67;4.67;;;;;;;1.51;100.00;99621.39;1727984;82;21125;-52
2022/11/25 06:59:58;;;;;;;5.47;3.73;;;;;;;1.52;100.00;99628.91;1724501;82;21065;-52
2022/11/25 07:02:24;;;;;;;7.37;4.37;;;;;;;1.55;100.00;99637.24;1722824;82;21121;-53
2022/11/25 07:04:51;;;;;;;6.23;3.67;;;;;;;1.56;100.00;99639.00;1726120;82;21120;-53
2022/11/25 07:07:17;;;;;;;9.93;5.37;;;;;;;1.57;100.00;99635.45;1720163;82;21835;-52
2022/11/25 07:09:44;;;;;;;6.47;3.80;;;;;;;1.58;100.00;99635.44;1722695;82;21065;-52
2022/11/25 07:12:11;;;;;;;9.90;4.67;;;;;;;1.59;100.00;99645.61;1721111;82;21526;-52
2022/11/25 07:14:39;;;;;;;14.83;6.10;;;;;;;1.58;100.00;99646.50;1721888;82;21524;-52
2022/11/25 07:17:06;;;;;;;9.87;5.40;;;;;;;1.59;100.00;99644.28;1723472;82;21633;-52
2022/11/25 07:19:34;;;;;;;8.30;4.83;;;;;;;1.60;100.00;99654.88;1722806;82;21980;-53
2022/11/25 07:22:01;;;;;;;7.27;5.37;;;;;;;1.62;100.00;99655.70;1724960;82;21617;-52
2022/11/25 07:24:27;;;;;;;8.23;4.73;;;;;;;1.66;100.00;99660.09;1723119;82;21108;-52
2022/11/25 07:26:54;;;;;;;7.43;4.97;;;;;;;1.69;100.00;99656.08;1720507;81;21085;-52
2022/11/25 07:29:20;;;;;;;9.87;6.03;;;;;;;1.70;100.00;99665.77;1714412;82;21074;-52
2022/11/25 07:31:47;;;;;;;8.10;5.47;;;;;;;1.73;100.00;99668.38;1724375;82;21826;-52
2022/11/25 07:34:22;;;;;;;7.43;4.77;;;;;;;1.76;100.00;99673.66;1717874;82;21541;-52
2022/11/25 07:36:49;;;;;;;7.70;4.87;;;;;;;1.79;100.00;99677.58;1719417;82;21094;-52
2022/11/25 07:39:18;;;;;;;9.87;5.80;;;;;;;1.81;100.00;99676.23;1722501;82;21092;-52
2022/11/25 07:41:45;;;;;;;10.23;5.00;;;;;;;1.82;100.00;99673.56;1724546;82;21558;-52
2022/11/25 07:44:13;;;;;;;7.10;4.47;;;;;;;1.84;100.00;99689.02;1669813;83;21840;-52
2022/11/25 07:46:50;;;;;;;7.50;4.30;;;;;;;1.89;100.00;99686.30;1726147;82;21398;-52
2022/11/25 07:49:21;;;;;;;8.57;3.33;;;;;;;1.89;100.00;99686.30;1665313;83;22241;-52
2022/11/25 07:51:53;;;;;;;6.13;3.23;;;;;;;1.88;100.00;99681.43;1725622;82;21046;-52
2022/11/25 07:54:20;;;;;;;6.93;3.17;;;;;;;1.88;100.00;99693.38;1723562;82;21133;-52
2022/11/25 07:56:47;;;;;;;5.27;3.03;;;;;;;1.87;100.00;99698.73;1724682;82;21932;-52
2022/11/25 07:59:16;;;;;;;4.70;2.80;;;;;;;1.87;100.00;99702.71;1718509;82;21042;-53
2022/11/25 08:01:43;;;;;;;8.20;4.23;;;;;;;1.85;100.00;99703.17;1723868;82;21058;-54
2022/11/25 08:04:11;;;;;;;4.17;2.93;;;;;;;1.84;100.00;99703.63;1725311;82;21049;-52
2022/11/25 08:06:42;;;;;;;3.10;2.70;;;;;;;1.84;100.00;99702.75;1718165;82;21026;-52
2022/11/25 08:09:10;;;;;;;3.87;3.23;;;;;;;1.82;100.00;99705.86;1727493;81;22877;-53
2022/11/25 08:11:36;;;;;;;4.27;2.67;;;;;;;1.80;100.00;99711.19;1718230;82;21090;-53
2022/11/25 08:14:03;;;;;;;3.03;2.30;;;;;;;1.77;100.00;99705.06;1670491;83;21404;-52
2022/11/25 08:16:30;;;;;;;7.00;3.67;;;;;;;1.76;100.00;99703.30;1668371;83;21072;-54
2022/11/25 08:19:01;;;;;;;3.93;2.97;;;;;;;1.77;100.00;99701.95;1723079;82;21088;-54
2022/11/25 08:21:28;;;;;;;6.50;3.17;;;;;;;1.78;100.00;99701.52;1723260;80;21861;-53
2022/11/25 08:23:54;;;;;;;6.33;3.73;;;;;;;1.78;100.00;99699.73;1726262;82;21105;-53
2022/11/25 08:26:29;;;;;;;4.70;2.70;;;;;;;1.77;100.00;99694.44;1719131;82;21130;-53
2022/11/25 08:28:56;;;;;;;9.48;3.58;;;;;;;1.74;100.00;150855.47;1712926;82;21054;-52
2022/11/25 08:31:28;;;;;;;4.93;2.53;;;;;;;-144.06;100.00;82462.77;1718506;82;21090;-52
2022/11/25 13:45:26;;;;;;;12.33;5.40;;;;;;;;;;1787412;78;22585;-53
2022/11/25 13:47:52;;;;;;;12.10;5.60;;;;;;;;;;1752513;80;20974;-54
2022/11/25 13:50:22;;;;;;;12.93;5.20;;;;;;;;;;1763236;80;20914;-52
2022/11/25 13:52:49;;;;;;;11.20;6.77;;;;;;;;;;1752619;80;20975;-53
2022/11/25 13:55:17;;;;;;;11.93;6.13;;;;;;;;;;1751072;80;20977;-52
2022/11/25 13:57:47;;;;;;;9.63;5.60;;;;;;;;;;1752566;80;20966;-53
2022/11/25 14:00:15;;;;;;;10.67;5.83;;;;;;;;;;1749301;80;21004;-52
2022/11/25 14:02:43;;;;;;;11.40;5.70;;;;;;;;;;1762205;80;20959;-53
2022/11/25 14:05:28;;;;;;;9.23;4.93;;;;;;;;;;1758651;79;20934;-53
2022/11/25 14:14:34;;;;;;;18.43;7.20;;;;;;;;;;1682422;83;21055;-82
2022/11/25 14:17:15;;;;;;;13.90;6.53;;;;;;;;;;1684378;83;21053;-80
2022/11/25 14:20:06;;;;;;;14.03;6.67;;;;;;;;;;1680829;83;20998;-79
2022/11/25 14:22:47;;;;;;;15.10;6.87;;;;;;;;;;1683705;83;21312;-82
2022/11/25 14:25:22;;;;;;;12.27;6.43;;;;;;;;;;1680835;83;21026;-81
2022/11/25 14:27:52;;;;;;;15.90;7.90;;;;;;;;;;1687231;83;21082;-81
2022/11/25 14:30:19;;;;;;;13.97;6.63;;;;;;;;;;1684552;82;21833;-80
2022/11/25 14:33:04;;;;;;;16.10;7.70;;;;;;;;;;1682879;83;21088;-79
2022/11/25 14:35:38;;;;;;;;;;;;;;;;;;1684172;83;21064;-81
2022/11/25 14:38:18;;;;;;;15.80;7.13;;;;;;;;;;1674271;83;20218;-81
2022/11/25 14:41:03;;;;;;;13.53;6.83;;;;;;;;;;1681248;83;21088;-80
2022/11/25 14:43:35;;;;;;;12.97;6.47;;;;;;;;;;1677441;83;21100;-80
2022/11/25 14:46:14;;;;;;;14.60;8.07;;;;;;;;;;1677417;83;20993;-78
2022/11/25 14:48:41;;;;;;;15.27;7.80;;;;;;;;;;1679413;83;21111;-80
2022/11/25 14:51:12;;;;;;;15.23;8.17;;;;;;;;;;1679082;83;21067;-82
2022/11/25 14:53:43;;;;;;;20.97;10.87;;;;;;;;;;1678405;83;21100;-82
2022/11/25 14:56:13;;;;;;;22.33;8.77;;;;;;;;;;1674819;83;21275;-80
2022/11/25 14:58:46;;;;;;;16.13;8.80;;;;;;;;;;1676189;83;21408;-82
2022/11/25 15:01:26;;;;;;;17.77;9.17;;;;;;;;;;1682449;83;21056;-79
2022/11/25 15:04:14;;;;;;;23.43;9.37;;;;;;;;;;1677490;83;21081;-81
2022/11/25 15:06:42;;;;;;;20.00;9.03;;;;;;;;;;1675718;83;21077;-81
2022/11/25 15:09:30;;;;;;;19.80;8.57;;;;;;;;;;1675449;83;21807;-80
2022/11/25 15:12:00;;;;;;;16.83;8.17;;;;;;;;;;1680680;83;21228;-81
2022/11/25 15:14:32;;;;;;;19.53;9.47;;;;;;;;;;1712237;81;21071;-81
2022/11/25 15:16:58;;;;;;;16.37;9.20;;;;;;;;;;1723489;81;21148;-81
2022/11/25 15:19:26;;;;;;;21.10;9.77;;;;;;;;;;1717946;81;21114;-80
2022/11/25 15:21:56;;;;;;;17.20;9.37;;;;;;;;;;1715171;81;22240;-80
2022/11/25 15:24:25;;;;;;;18.80;9.90;;;;;;;;;;1722807;81;20950;-80
2022/11/25 15:26:54;;;;;;;20.33;10.13;;;;;;;;;;1723467;81;21172;-82
2022/11/25 15:29:20;;;;;;;16.93;9.50;;;;;;;;;;1727390;81;21032;-81
2022/11/25 15:31:47;;;;;;;15.67;8.53;;;;;;;;;;1721848;81;21069;-82
2022/11/25 15:34:13;;;;;;;19.37;10.17;;;;;;;;;;1721368;81;21790;-81
2022/11/25 15:36:39;;;;;;;18.80;9.33;;;;;;;;;;1695538;81;21065;-81
2022/11/25 15:39:22;;;;;;;19.20;8.80;;;;;;;;;;1725250;81;21537;-82
2022/11/25 15:42:07;;;;;;;20.13;9.17;;;;;;;;;;1728048;81;21076;-81
2022/11/25 15:44:36;;;;;;;21.40;9.40;;;;;;;;;;1724293;81;21063;-82
2022/11/25 15:47:08;;;;;;;16.80;9.07;;;;;;;;;;1722212;81;22623;-81
2022/11/25 15:49:35;;;;;;;20.13;9.73;;;;;;;;;;1723349;81;21052;-82
2022/11/25 15:52:04;;;;;;;19.03;9.73;;;;;;;;;;1717691;81;21049;-82
2022/11/25 15:54:31;;;;;;;16.83;9.47;;;;;;;;;;1726565;81;21072;-81
2022/11/25 15:57:02;;;;;;;21.43;9.50;;;;;;;;;;1720007;81;21064;-82
2022/11/25 15:59:41;;;;;;;22.37;11.37;;;;;;;;;;1734583;81;21698;-81
2022/11/25 16:02:33;;;;;;;20.87;10.90;;;;;;;;;;1726132;81;20968;-82
2022/11/25 16:05:15;;;;;;;20.87;11.43;;;;;;;;;;1731027;81;20986;-80
2022/11/25 16:07:53;;;;;;;22.53;10.43;;;;;;;;;;1644611;86;21071;-81
2022/11/25 16:10:25;;;;;;;18.13;8.83;;;;;;;;;;1689083;83;21159;-81
2022/11/25 16:13:21;;;;;;;16.97;9.63;;;;;;;;;;1697418;83;22197;-82
2022/11/25 16:16:15;;;;;;;18.87;9.83;;;;;;;;;;1667867;84;21045;-80
2022/11/25 16:19:10;;;;;;;17.77;9.30;;;;;;;;;;1705959;80;72651;-55
2022/11/25 16:21:51;;;;;;;17.62;8.83;;;;;;;;;;1743333;80;21513;-54
2022/11/25 16:24:34;;;;;;;15.80;9.00;;;;;;;;;;1745271;80;21603;-55
2022/11/25 16:27:04;;;;;;;16.03;9.40;;;;;;;;;;1740793;80;22656;-55
2022/11/25 16:29:33;;;;;;;20.80;10.83;;;;;;;;;;1745366;80;21700;-55
2022/11/25 16:31:59;;;;;;;20.27;10.30;;;;;;;;;;1737434;80;21120;-55
2022/11/25 16:34:25;;;;;;;18.60;10.20;;;;;;;;;;1737508;80;21223;-55
2022/11/25 16:36:54;;;;;;;18.80;10.40;;;;;;;;;;1744970;80;21083;-55
2022/11/25 16:39:21;;;;;;;17.33;9.07;;;;;;;;;;1709707;81;21780;-55
2022/11/25 16:41:56;;;;;;;19.83;8.93;;;;;;;;;;1741554;80;21151;-55
2022/11/25 16:44:23;;;;;;;19.30;10.03;;;;;;;;;;1736659;80;21337;-55
2022/11/25 16:46:50;;;;;;;23.23;11.03;;;;;;;;;;1738874;80;22019;-55
2022/11/25 16:49:17;;;;;;;21.17;10.60;;;;;;;;;;1740579;80;21178;-55
2022/11/25 16:51:43;;;;;;;19.20;9.53;;;;;;;;;;1741945;80;21842;-55
2022/11/25 16:54:11;;;;;;;20.23;9.63;;;;;;;;;;1743132;80;21128;-55
2022/11/25 16:56:39;;;;;;;19.37;10.07;;;;;;;;;;1742199;80;21054;-55
2022/11/25 16:59:05;;;;;;;20.23;8.77;;;;;;;;;;1738221;80;21078;-55
2022/11/25 17:01:32;;;;;;;16.77;9.10;;;;;;;;;;1744188;80;21066;-55
2022/11/25 17:03:59;;;;;;;18.03;8.50;;;;;;;;;;1744825;80;21833;-55
2022/11/25 17:06:26;;;;;;;16.30;8.30;;;;;;;;;;1712363;80;21560;-55
2022/11/25 17:08:52;;;;;;;15.57;8.27;;;;;;;;;;1740097;80;21665;-55
2022/11/25 17:11:22;;;;;;;17.90;8.10;;;;;;;;;;1727109;80;21116;-55
2022/11/25 17:13:49;;;;;;;18.70;8.73;;;;;;;;;;1713018;81;21114;-56
2022/11/25 17:16:17;;;;;;;19.47;9.13;;;;;;;;;;1714561;81;21942;-56
2022/11/25 17:18:44;;;;;;;18.03;8.27;;;;;;;;;;1719758;81;21078;-56
2022/11/25 17:21:12;;;;;;;15.97;7.77;;;;;;;;;;1725208;81;21132;-56
2022/11/25 17:23:38;;;;;;;13.67;7.97;;;;;;;;;;1692302;81;21417;-56
2022/11/25 17:26:05;;;;;;;14.77;7.97;;;;;;;;;;1692238;81;21090;-56
2022/11/25 17:28:31;;;;;;;13.93;6.83;;;;;;;;;;1718978;81;21783;-57
2022/11/25 17:30:58;;;;;;;14.50;7.03;;;;;;;;;;1720969;81;21101;-56
2022/11/25 17:33:25;;;;;;;14.73;8.13;;;;;;;;;;1719270;81;21427;-56
2022/11/25 17:35:52;;;;;;;14.37;7.53;;;;;;;;;;1720164;81;21116;-56
2022/11/25 17:38:19;;;;;;;15.27;7.60;;;;;;;;;;1724043;81;21076;-56
2022/11/25 17:40:45;;;;;;;15.77;9.23;;;;;;;;;;1719219;81;21848;-56
2022/11/25 17:43:15;;;;;;;13.17;7.83;;;;;;;;;;1682186;83;21076;-56
2022/11/25 17:45:42;;;;;;;15.53;7.93;;;;;;;;;;1719589;81;21079;-57
2022/11/25 17:48:13;;;;;;;11.60;6.90;;;;;;;;;;1721670;81;21330;-56
2022/11/25 17:50:40;;;;;;;14.23;6.90;;;;;;;;;;1719252;81;21050;-56
2022/11/25 17:53:06;;;;;;;13.53;6.87;;;;;;;;;;1722066;81;21874;-57
2022/11/25 17:55:34;;;;;;;16.10;7.27;;;;;;;;;;1723526;81;21199;-57
2022/11/25 17:58:00;;;;;;;12.30;6.30;;;;;;;;;;1720324;81;21078;-57
2022/11/25 18:00:27;;;;;;;13.07;6.37;;;;;;;;;;1719586;81;21129;-57
2022/11/25 18:02:53;;;;;;;13.70;6.17;;;;;;;;;;1720223;81;21163;-57